Terminal Aerodrome Forecast
Issued by NWS

Home | Current Version | Previous Version | Text Only | Print | Product List | Glossary On
Versions: 1 2 3 4 5 6 7 8 9 10 11 12 13 14 15 16 17 18 19 20 21 22 23 24 25 26 27 28 29 30
272
FTUS43 KDLH 210847 AAB
TAFHYR
TAF AMD
KHYR 210847Z 2109/2206 00000KT 5SM BR BKN100
      TEMPO 2110/2114 1 1/2SM BR SCT005
     FM211700 00000KT 5SM BR BKN018
     FM212000 03004KT 6SM BR BKN060
     FM212200 03005KT P6SM OVC060
     FM220400 05006KT 3SM BR OVC015=

USA.gov is the U.S. government's official web portal to all federal, state and local government web resources and services.